Parq de Jardines, Puerto Rico
Current Conditions -  °F | °C
As of 8:50 AM on Wednesday 22 Oct 2014 (Local Time) from TJBQ Reporting Station
Clear Clear  
Wind Chill: 82°   Ceiling: Unl
Heat Index: 86°   Visibility: 10mi
Dew Point: 70°   Wind: 7mph
Humidity: 66%   Direction: 120°ESE
Pressure: 30"   Gusts: NA
Location:  18.4739°N, 66.7295°W
Report Text: TJBQ 221250Z 12006KT 10SM SKC 28/21 A3000 RMK RWY 8 ATIS M
Loading
Personal Weather Stations






























Interactive Weather Map
Tropical Storm Tracking
New forecast layout! Learn more

10-Day Weather Forecast

Advertisements
Track Severe Weather on mobile